createdAt,value
2022-09-04T00:00:19.818Z,75.80
2022-09-04T00:02:51.584Z,76.10
2022-09-04T00:05:35.885Z,76.20
2022-09-04T00:08:12.306Z,75.80
2022-09-04T00:11:05.360Z,75.80
2022-09-04T00:13:44.833Z,75.50
2022-09-04T00:16:20.211Z,75.40
2022-09-04T00:19:10.021Z,75.10
2022-09-04T00:22:00.865Z,74.70
2022-09-04T00:24:59.895Z,74.50
2022-09-04T00:27:44.500Z,74.20
2022-09-04T00:30:16.074Z,73.90
2022-09-04T00:32:58.267Z,73.90
2022-09-04T00:39:36.044Z,73.90
2022-09-04T00:42:29.003Z,74.30
2022-09-04T00:45:08.105Z,74.50
2022-09-04T00:48:19.754Z,74.80
2022-09-04T00:51:23.346Z,74.90
2022-09-04T00:54:29.353Z,75.20
2022-09-04T00:57:14.872Z,75.30
2022-09-04T01:00:04.990Z,75.40
2022-09-04T01:02:49.700Z,75.80
2022-09-04T01:05:36.596Z,76.00
2022-09-04T01:08:26.690Z,76.10
2022-09-04T01:11:11.503Z,76.70
2022-09-04T01:13:59.129Z,76.70
2022-09-04T01:16:46.083Z,77.20
2022-09-04T01:19:30.155Z,77.30
2022-09-04T01:21:58.964Z,77.20
2022-09-04T01:24:57.840Z,77.50
2022-09-04T01:27:52.061Z,77.60
2022-09-04T01:30:21.769Z,77.70
2022-09-04T01:33:06.614Z,77.90
2022-09-04T01:35:59.263Z,78.20
2022-09-04T01:38:39.238Z,78.30
2022-09-04T01:41:16.381Z,78.30
2022-09-04T01:43:44.097Z,78.50
2022-09-04T01:46:39.591Z,79.20
2022-09-04T01:49:22.742Z,79.30
2022-09-04T01:52:08.333Z,79.60
2022-09-04T01:54:57.760Z,79.50
2022-09-04T01:58:16.786Z,79.80
2022-09-04T02:01:00.048Z,79.50
2022-09-04T02:03:47.301Z,79.30
2022-09-04T02:06:54.455Z,79.30
2022-09-04T02:09:34.073Z,79.60
2022-09-04T02:12:51.370Z,80.00
2022-09-04T02:15:36.147Z,79.90
2022-09-04T02:18:31.769Z,79.90
2022-09-04T02:21:12.426Z,79.90
2022-09-04T02:24:25.492Z,79.90
2022-09-04T02:27:12.957Z,80.00
2022-09-04T02:30:12.525Z,79.90
2022-09-04T02:32:49.551Z,79.70
2022-09-04T02:35:42.742Z,80.00
2022-09-04T02:39:01.576Z,80.10
2022-09-04T02:42:21.668Z,80.00
2022-09-04T02:45:19.233Z,79.80
2022-09-04T02:48:09.389Z,79.70
2022-09-04T02:51:14.365Z,79.40
2022-09-04T02:53:44.384Z,79.30
2022-09-04T02:56:30.655Z,79.30
2022-09-04T02:59:35.274Z,79.40
2022-09-04T03:02:11.990Z,79.30
2022-09-04T03:05:00.815Z,79.30
2022-09-04T03:07:49.882Z,79.50
2022-09-04T03:10:35.960Z,79.60
2022-09-04T03:13:10.786Z,79.60
2022-09-04T03:15:46.038Z,79.50
2022-09-04T03:18:29.121Z,79.30
2022-09-04T03:21:12.187Z,79.20
2022-09-04T03:24:03.398Z,79.00
2022-09-04T03:26:47.575Z,78.80
2022-09-04T03:29:22.270Z,78.50
2022-09-04T03:32:06.688Z,78.30
2022-09-04T03:34:57.449Z,78.30
2022-09-04T03:37:54.920Z,78.30
2022-09-04T03:41:06.026Z,78.20
2022-09-04T03:44:02.382Z,77.90
2022-09-04T03:47:25.986Z,77.90
2022-09-04T03:50:29.334Z,78.10
2022-09-04T03:53:28.522Z,78.10
2022-09-04T03:56:43.352Z,77.80
2022-09-04T03:59:27.334Z,77.30
2022-09-04T04:02:35.259Z,77.20
2022-09-04T04:05:26.200Z,77.50
2022-09-04T04:08:33.813Z,77.80
2022-09-04T04:11:56.149Z,78.00
2022-09-04T04:14:23.777Z,78.10
2022-09-04T04:17:15.674Z,78.40
2022-09-04T04:20:10.924Z,77.90
2022-09-04T04:23:30.498Z,77.20
2022-09-04T04:26:30.982Z,77.00
2022-09-04T04:29:07.001Z,77.10
2022-09-04T04:32:15.935Z,76.70
2022-09-04T04:35:05.544Z,76.30
2022-09-04T04:38:02.748Z,75.20
2022-09-04T04:41:05.998Z,75.10
2022-09-04T04:43:58.588Z,75.30
2022-09-04T04:46:46.263Z,75.50
2022-09-04T04:49:19.663Z,75.20
2022-09-04T04:52:20.951Z,75.20
2022-09-04T04:55:24.660Z,75.60
2022-09-04T04:58:08.418Z,75.50
2022-09-04T05:01:16.770Z,75.90
2022-09-04T05:03:58.307Z,76.10
2022-09-04T05:07:00.491Z,75.90
2022-09-04T05:09:57.442Z,75.90
2022-09-04T05:12:36.766Z,75.70
2022-09-04T05:15:10.687Z,75.70
2022-09-04T05:17:51.676Z,75.70
2022-09-04T05:20:43.285Z,75.50
2022-09-04T05:23:30.134Z,74.40
2022-09-04T05:26:07.055Z,73.70
2022-09-04T05:29:00.031Z,72.60
2022-09-04T05:31:27.574Z,72.20
2022-09-04T05:34:13.074Z,71.80
2022-09-04T05:37:30.550Z,71.30
2022-09-04T05:40:12.287Z,70.20
2022-09-04T05:42:59.276Z,69.10
2022-09-04T05:46:07.992Z,68.00
2022-09-04T05:48:59.050Z,68.00
2022-09-04T05:52:01.716Z,67.80
2022-09-04T05:54:58.596Z,66.40
2022-09-04T05:57:49.379Z,63.50
2022-09-04T06:00:23.716Z,60.20
2022-09-04T06:03:22.140Z,59.00
2022-09-04T06:06:14.586Z,59.00
2022-09-04T06:09:13.133Z,59.50
2022-09-04T06:11:57.733Z,59.60
2022-09-04T06:15:06.374Z,60.00
2022-09-04T06:17:55.161Z,59.20
2022-09-04T06:20:53.009Z,58.00
2022-09-04T06:24:00.455Z,52.30
2022-09-04T06:27:03.488Z,47.70
2022-09-04T06:29:58.528Z,45.00
2022-09-04T06:32:56.065Z,45.10
2022-09-04T06:35:53.571Z,46.00
2022-09-04T06:38:42.578Z,46.00
2022-09-04T06:41:33.918Z,43.80
2022-09-04T06:44:27.051Z,41.40
2022-09-04T06:47:31.880Z,39.10
2022-09-04T06:50:14.663Z,38.70
2022-09-04T06:53:03.533Z,38.70
2022-09-04T06:56:15.058Z,39.70
2022-09-04T06:59:06.899Z,41.00
2022-09-04T07:01:52.873Z,40.70
2022-09-04T07:04:39.445Z,41.30
2022-09-04T07:07:24.855Z,41.90
2022-09-04T07:10:16.749Z,40.20
2022-09-04T07:12:45.420Z,38.30
2022-09-04T07:15:35.045Z,37.60
2022-09-04T07:18:30.992Z,36.00
2022-09-04T07:21:42.026Z,36.00
2022-09-04T07:24:28.462Z,36.20
2022-09-04T07:26:58.780Z,37.20
2022-09-04T07:29:49.634Z,38.30
2022-09-04T07:32:23.267Z,40.30
2022-09-04T07:35:27.981Z,43.30
2022-09-04T07:38:22.758Z,46.10
2022-09-04T07:41:05.988Z,49.90
2022-09-04T07:44:12.080Z,52.70
2022-09-04T07:46:50.085Z,55.20
2022-09-04T07:49:46.130Z,61.30
2022-09-04T07:52:45.401Z,67.80
2022-09-04T07:55:41.361Z,72.80
2022-09-04T07:58:11.918Z,74.60
2022-09-04T08:01:20.390Z,76.20
2022-09-04T08:04:06.254Z,77.30
2022-09-04T08:06:50.511Z,78.70
2022-09-04T08:09:39.510Z,79.30
2022-09-04T08:12:20.106Z,78.20
2022-09-04T08:15:06.575Z,77.80
2022-09-04T08:18:05.044Z,77.80
2022-09-04T08:21:21.649Z,78.30
2022-09-04T08:24:15.060Z,76.20
2022-09-04T08:27:24.841Z,70.20
2022-09-04T08:30:04.455Z,56.00
2022-09-04T08:33:12.610Z,53.20
2022-09-04T08:36:01.453Z,46.00
2022-09-04T08:39:10.655Z,42.20
2022-09-04T08:42:20.461Z,38.60
2022-09-04T08:45:26.878Z,36.50
2022-09-04T08:48:32.942Z,35.50
2022-09-04T08:51:04.241Z,35.90
2022-09-04T08:54:29.235Z,35.10
2022-09-04T08:56:58.606Z,35.00
2022-09-04T08:59:33.204Z,35.00
2022-09-04T09:02:10.494Z,34.40
2022-09-04T09:04:42.186Z,34.00
2022-09-04T09:07:44.778Z,33.60
2022-09-04T09:10:40.269Z,32.30
2022-09-04T09:13:44.632Z,32.40
2022-09-04T09:16:31.909Z,32.40
2022-09-04T09:19:37.914Z,32.20
2022-09-04T09:22:14.285Z,31.50
2022-09-04T09:25:14.633Z,31.40
2022-09-04T09:28:07.747Z,31.30
2022-09-04T09:31:13.094Z,31.30
2022-09-04T09:33:56.885Z,30.80
2022-09-04T09:37:03.110Z,31.20
2022-09-04T09:39:58.673Z,32.20
2022-09-04T09:42:54.673Z,32.60
2022-09-04T09:45:49.692Z,33.20
2022-09-04T09:48:44.753Z,34.00
2022-09-04T09:51:35.299Z,34.70
2022-09-04T09:54:41.062Z,35.30
2022-09-04T09:57:39.440Z,35.70
2022-09-04T10:00:13.853Z,36.60
2022-09-04T10:03:03.108Z,38.00
2022-09-04T10:06:14.699Z,40.30
2022-09-04T10:09:14.805Z,42.40
2022-09-04T10:15:14.693Z,45.50
2022-09-04T10:18:18.201Z,45.90
2022-09-04T10:21:23.067Z,46.20
2022-09-04T10:24:33.952Z,44.80
2022-09-04T10:27:08.691Z,42.70
2022-09-04T10:29:45.342Z,41.80
2022-09-04T10:32:34.897Z,41.60
2022-09-04T10:35:23.773Z,40.90
2022-09-04T10:38:12.868Z,41.20
2022-09-04T10:40:49.257Z,40.40
2022-09-04T10:43:39.913Z,40.40
2022-09-04T10:49:17.367Z,41.00
2022-09-04T10:52:27.625Z,41.60
2022-09-04T10:55:20.408Z,42.20
2022-09-04T10:58:18.646Z,42.50
2022-09-04T11:01:04.689Z,42.40
2022-09-04T11:03:56.789Z,42.30
2022-09-04T11:06:50.910Z,42.10
2022-09-04T11:09:35.813Z,41.80
2022-09-04T11:12:03.381Z,40.80
2022-09-04T11:15:09.321Z,40.90
2022-09-04T11:18:04.701Z,40.70
2022-09-04T11:21:12.559Z,40.80
2022-09-04T11:23:49.259Z,41.20
2022-09-04T11:26:29.102Z,41.40
2022-09-04T11:29:30.178Z,41.10
2022-09-04T11:32:22.289Z,41.20
2022-09-04T11:35:08.066Z,41.00
2022-09-04T11:37:51.918Z,40.20
2022-09-04T11:40:39.561Z,40.90
2022-09-04T11:43:56.302Z,42.50
2022-09-04T11:46:42.744Z,43.70
2022-09-04T11:49:55.232Z,44.30
2022-09-04T11:52:52.118Z,45.60
2022-09-04T11:55:43.986Z,46.20
2022-09-04T11:58:37.703Z,47.30
2022-09-04T12:01:31.857Z,48.10
2022-09-04T12:04:20.564Z,48.20
2022-09-04T12:07:13.670Z,48.40
2022-09-04T12:10:16.065Z,49.30
2022-09-04T12:13:15.822Z,49.90
2022-09-04T12:16:01.983Z,49.80
2022-09-04T12:18:52.396Z,48.60
2022-09-04T12:21:53.471Z,48.40
2022-09-04T12:24:39.577Z,47.10
2022-09-04T12:27:54.863Z,46.20
2022-09-04T12:30:50.531Z,45.30
2022-09-04T12:33:49.447Z,44.80
2022-09-04T12:36:27.029Z,45.80
2022-09-04T12:39:14.797Z,47.60
2022-09-04T12:41:58.614Z,50.20
2022-09-04T12:45:01.577Z,52.00
2022-09-04T12:47:41.571Z,53.90
2022-09-04T12:50:21.880Z,55.10
2022-09-04T12:53:19.498Z,55.90
2022-09-04T12:55:54.060Z,55.90
2022-09-04T12:58:50.652Z,55.70
2022-09-04T13:01:37.488Z,54.50
2022-09-04T13:04:27.402Z,54.10
2022-09-04T13:07:22.968Z,55.00
2022-09-04T13:10:33.483Z,53.70
2022-09-04T13:13:40.851Z,54.80
2022-09-04T13:16:55.674Z,54.50
2022-09-04T13:19:44.848Z,55.60
2022-09-04T13:22:34.399Z,56.30
2022-09-04T13:25:53.660Z,57.20
2022-09-04T13:28:45.459Z,57.20
2022-09-04T13:31:19.393Z,57.30
2022-09-04T13:34:19.790Z,57.30
2022-09-04T13:37:09.364Z,57.20
2022-09-04T13:39:45.566Z,54.60
2022-09-04T13:42:34.699Z,53.70
2022-09-04T13:45:24.174Z,53.30
2022-09-04T13:48:37.675Z,53.30
2022-09-04T13:51:27.236Z,53.30
2022-09-04T13:54:00.530Z,53.80
2022-09-04T13:56:43.099Z,54.20
2022-09-04T13:59:19.641Z,54.80
2022-09-04T14:01:52.328Z,55.50
2022-09-04T14:04:28.895Z,55.80
2022-09-04T14:07:08.327Z,56.60
2022-09-04T14:09:48.392Z,57.20
2022-09-04T14:13:00.626Z,57.90
2022-09-04T14:16:01.940Z,58.00
2022-09-04T14:18:56.316Z,57.60
2022-09-04T14:21:33.655Z,57.20
2022-09-04T14:24:28.057Z,57.00
2022-09-04T14:27:21.052Z,56.70
2022-09-04T14:29:57.911Z,56.60
2022-09-04T14:32:46.858Z,56.30
2022-09-04T14:35:35.982Z,55.60
2022-09-04T14:38:35.812Z,54.30
2022-09-04T14:41:14.687Z,53.60
2022-09-04T14:44:04.441Z,53.70
2022-09-04T14:46:51.710Z,53.20
2022-09-04T14:49:23.628Z,52.60
2022-09-04T14:51:57.444Z,52.60
2022-09-04T14:54:33.343Z,53.10
2022-09-04T14:57:27.731Z,53.40
2022-09-04T15:00:18.423Z,54.10
2022-09-04T15:03:08.866Z,55.20
2022-09-04T15:05:57.669Z,56.10
2022-09-04T15:08:39.899Z,56.70
2022-09-04T15:11:34.951Z,57.20
2022-09-04T15:14:28.676Z,57.50
2022-09-04T15:17:04.138Z,57.80
2022-09-04T15:19:56.537Z,57.80
2022-09-04T15:22:39.607Z,57.60
2022-09-04T15:25:54.698Z,57.40
2022-09-04T15:28:31.370Z,57.80
2022-09-04T15:31:38.828Z,57.60
2022-09-04T15:34:35.242Z,58.00
2022-09-04T15:37:18.979Z,58.30
2022-09-04T15:40:13.478Z,58.30
2022-09-04T15:42:55.366Z,57.80
2022-09-04T15:45:42.063Z,57.90
2022-09-04T15:48:28.384Z,58.00
2022-09-04T15:51:27.361Z,57.40
2022-09-04T15:54:43.338Z,57.80
2022-09-04T15:57:33.298Z,58.20
2022-09-04T16:00:11.323Z,58.40
2022-09-04T16:03:07.204Z,59.00
2022-09-04T16:05:52.130Z,59.20
2022-09-04T16:08:36.475Z,59.20
2022-09-04T16:11:06.783Z,59.50
2022-09-04T16:13:54.046Z,59.60
2022-09-04T16:16:41.109Z,60.00
2022-09-04T16:19:21.302Z,60.30
2022-09-04T16:22:00.313Z,60.50
2022-09-04T16:25:08.166Z,60.70
2022-09-04T16:27:53.549Z,60.60
2022-09-04T16:30:33.446Z,60.70
2022-09-04T16:33:02.629Z,60.50
2022-09-04T16:35:41.681Z,61.00
2022-09-04T16:38:24.434Z,61.30
2022-09-04T16:41:25.714Z,61.40
2022-09-04T16:44:25.785Z,62.30
2022-09-04T16:47:02.937Z,62.80
2022-09-04T16:49:30.876Z,63.00
2022-09-04T16:52:27.130Z,62.90
2022-09-04T16:55:14.044Z,62.90
2022-09-04T16:58:09.066Z,62.20
2022-09-04T17:01:14.202Z,62.20
2022-09-04T17:04:13.174Z,60.60
2022-09-04T17:07:00.710Z,60.10
2022-09-04T17:09:58.163Z,60.20
2022-09-04T17:12:38.000Z,60.30
2022-09-04T17:15:35.814Z,60.60
2022-09-04T17:18:20.817Z,60.70
2022-09-04T17:27:41.893Z,60.90
2022-09-04T17:28:58.467Z,61.40
2022-09-04T17:29:15.233Z,61.50
2022-09-04T17:30:29.135Z,61.60
2022-09-04T17:40:06.246Z,61.90
2022-09-04T17:40:36.254Z,62.10
2022-09-04T17:40:49.543Z,62.40
2022-09-04T17:43:35.583Z,62.10
2022-09-04T17:46:16.098Z,62.40
2022-09-04T17:48:52.559Z,62.20
2022-09-04T17:51:28.306Z,62.50
2022-09-04T17:54:03.190Z,62.80
2022-09-04T17:56:58.235Z,63.00
2022-09-04T17:59:45.823Z,62.90
2022-09-04T18:02:41.018Z,62.90
2022-09-04T18:05:26.584Z,63.10
2022-09-04T18:08:23.215Z,63.20
2022-09-04T18:14:03.809Z,63.60
2022-09-04T18:17:12.053Z,63.80
2022-09-04T18:19:53.595Z,64.00
2022-09-04T18:22:33.536Z,64.20
2022-09-04T18:25:25.741Z,64.20
2022-09-04T18:28:28.882Z,64.50
2022-09-04T18:37:11.211Z,64.70
2022-09-04T18:37:15.729Z,65.30
2022-09-04T18:37:24.929Z,65.10
2022-09-04T18:40:13.213Z,65.40
2022-09-04T18:50:25.320Z,66.00
2022-09-04T18:50:39.755Z,65.60
2022-09-04T18:51:03.324Z,66.20
2022-09-04T18:51:31.097Z,66.00
2022-09-04T18:54:21.004Z,66.20
2022-09-04T18:57:06.577Z,66.20
2022-09-04T18:59:45.308Z,66.60
2022-09-04T19:02:33.625Z,66.70
2022-09-04T19:05:07.539Z,66.70
2022-09-04T19:08:01.226Z,66.80
2022-09-04T19:10:56.145Z,67.00
2022-09-04T19:13:55.688Z,66.90
2022-09-04T19:17:07.569Z,66.80
2022-09-04T19:19:58.020Z,67.20
2022-09-04T19:22:43.018Z,67.00
2022-09-04T19:25:28.526Z,67.00
2022-09-04T19:28:14.196Z,67.00
2022-09-04T19:30:55.665Z,66.90
2022-09-04T19:33:40.010Z,66.90
2022-09-04T19:36:20.812Z,66.80
2022-09-04T19:44:25.589Z,67.00
2022-09-04T19:45:59.348Z,67.30
2022-09-04T19:46:13.430Z,67.50
2022-09-04T19:48:20.969Z,67.60
2022-09-04T19:53:24.471Z,67.60
2022-09-04T19:54:11.414Z,67.80
2022-09-04T19:57:32.350Z,67.80
2022-09-04T20:00:43.465Z,67.90
2022-09-04T20:03:29.524Z,68.00
2022-09-04T20:06:07.727Z,68.20
2022-09-04T20:09:14.887Z,68.20
2022-09-04T20:11:48.072Z,68.20
2022-09-04T20:14:55.311Z,68.40
2022-09-04T20:18:00.164Z,68.30
2022-09-04T20:20:52.095Z,68.70
2022-09-04T20:23:40.757Z,68.00
2022-09-04T20:26:22.191Z,67.90
2022-09-04T20:28:49.671Z,67.70
2022-09-04T20:31:45.524Z,67.80
2022-09-04T20:34:22.615Z,67.70
2022-09-04T20:37:02.799Z,68.20
2022-09-04T20:39:44.116Z,68.00
2022-09-04T20:42:38.015Z,68.20
2022-09-04T20:48:15.330Z,67.90
2022-09-04T20:53:06.019Z,67.80
2022-09-04T20:54:49.107Z,68.10
2022-09-04T21:03:08.849Z,68.40
2022-09-04T21:03:13.457Z,68.30
2022-09-04T21:03:57.372Z,68.70
2022-09-04T21:06:52.945Z,68.50
2022-09-04T21:09:54.732Z,68.70
2022-09-04T21:15:33.021Z,68.90
2022-09-04T21:18:09.826Z,68.90
2022-09-04T21:20:55.103Z,69.40
2022-09-04T21:24:10.237Z,69.50
2022-09-04T21:27:13.070Z,69.70
2022-09-04T21:29:59.473Z,69.90
2022-09-04T21:32:38.582Z,70.10
2022-09-04T21:35:41.270Z,70.10
2022-09-04T21:38:09.413Z,70.10
2022-09-04T21:40:52.511Z,70.30
2022-09-04T21:43:35.923Z,70.50
2022-09-04T21:46:13.035Z,70.60
2022-09-04T21:49:07.898Z,70.60
2022-09-04T21:52:00.212Z,70.50
2022-09-04T21:57:19.363Z,70.50
2022-09-04T22:02:36.081Z,70.60
2022-09-04T22:02:37.961Z,70.30
2022-09-04T22:04:18.740Z,70.50
2022-09-04T22:10:10.183Z,70.50
2022-09-04T22:13:39.073Z,70.70
2022-09-04T22:13:47.982Z,70.80
2022-09-04T22:17:20.163Z,71.00
2022-09-04T22:19:59.077Z,71.20
2022-09-04T22:22:35.708Z,71.30
2022-09-04T22:25:36.649Z,71.50
2022-09-04T22:28:44.919Z,71.60
2022-09-04T22:31:22.848Z,71.70
2022-09-04T22:34:16.923Z,72.00
2022-09-04T22:37:01.061Z,72.20
2022-09-04T22:39:39.165Z,72.50
2022-09-04T22:42:25.917Z,72.60
2022-09-04T22:45:11.788Z,72.80
2022-09-04T22:48:29.518Z,73.10
2022-09-04T22:51:34.464Z,73.20
2022-09-04T22:54:27.304Z,73.50
2022-09-04T22:57:18.978Z,73.60
2022-09-04T23:00:20.924Z,73.80
2022-09-04T23:03:29.798Z,73.90
2022-09-04T23:08:14.991Z,74.10
2022-09-04T23:13:48.455Z,74.20
2022-09-04T23:13:57.403Z,74.20
2022-09-04T23:16:00.685Z,74.30
2022-09-04T23:24:54.842Z,74.40
2022-09-04T23:26:42.222Z,74.80
2022-09-04T23:26:53.342Z,74.70
2022-09-04T23:28:27.099Z,74.80
2022-09-04T23:31:19.990Z,75.30
2022-09-04T23:34:19.446Z,75.00
2022-09-04T23:37:09.744Z,75.00
2022-09-04T23:39:55.883Z,74.90
2022-09-04T23:43:01.131Z,74.80
2022-09-04T23:45:48.794Z,74.70
2022-09-04T23:48:53.797Z,74.80
2022-09-04T23:52:05.034Z,75.10
2022-09-04T23:54:51.094Z,74.90
2022-09-04T23:57:36.060Z,75.10
